ADDS METAR Data INFO
IDs: Format: Raw Decoded Include TAF

Data at: 0752 UTC 17 Oct 2017

KCJR 170735Z AUTO 00000KT 10SM CLR 05/03 A3030 RMK AO2 T00460026
KCJR 170715Z AUTO 00000KT 10SM CLR 05/03 A3030 RMK AO2 T00470029
KCJR 170655Z AUTO 00000KT 10SM CLR 06/03 A3030 RMK AO2 T00550028
KCJR 170635Z AUTO 00000KT 10SM CLR 06/03 A3029 RMK AO2 T00590030
KCJR 170615Z AUTO 36003KT 10SM CLR 06/02 A3029 RMK AO2 T00630024
KCJR 170555Z AUTO 30003KT 10SM CLR 06/03 A3029 RMK AO2 T00560025 10129 20054
KCJR 170535Z AUTO 00000KT 10SM CLR 06/03 A3029 RMK AO2 T00610034
KCJR 170515Z AUTO 32004KT 10SM CLR 07/03 A3028 RMK AO2 T00720029
KCJR 170455Z AUTO 00000KT 10SM CLR 07/03 A3028 RMK AO2 T00730027 402170054
KCJR 170435Z AUTO 00000KT 10SM CLR 07/03 A3029 RMK AO2 T00710029
KCJR 170420Z AUTO 34004KT 10SM CLR 07/04 A3029 RMK AO2 T00650036
KCJR 170355Z AUTO 00000KT 10SM CLR 07/03 A3029 RMK AO2 T00700033
KCJR 170335Z AUTO 00000KT 10SM CLR 06/03 A3028 RMK AO2 T00600033
KCJR 170315Z AUTO 00000KT 10SM CLR 07/03 A3028 RMK AO2 T00690034
KCJR 170255Z AUTO 00000KT 10SM CLR 07/04 A3028 RMK AO2 T00660035
KCJR 170235Z AUTO 00000KT 10SM CLR 07/03 A3027 RMK AO2 T00700031
KCJR 170215Z AUTO 00000KT 10SM CLR 07/03 A3026 RMK AO2 T00690033
KCJR 170155Z AUTO 00000KT 10SM CLR 08/03 A3025 RMK AO2 T00770034
KCJR 170135Z AUTO 34003KT 10SM CLR 09/03 A3024 RMK AO2 T00860029
KCJR 170115Z AUTO 32004KT 10SM CLR 09/03 A3024 RMK AO2 T00850030
KCJR 170055Z AUTO 31003KT 10SM CLR 09/03 A3023 RMK AO2 T00870028
KCJR 170035Z AUTO 00000KT 10SM CLR 10/02 A3022 RMK AO2 T00950022
KCJR 170015Z AUTO 00000KT 10SM CLR 12/01 A3022 RMK AO2 T01150012
KCJR 162355Z AUTO 00000KT 10SM CLR 11/02 A3021 RMK AO2 T01120016 10193 20111
KCJR 162335Z AUTO 33003KT 10SM CLR 13/00 A3020 RMK AO2 T01340004
KCJR 162315Z AUTO 00000KT 10SM CLR 14/00 A3019 RMK AO2 T01380004
KCJR 162255Z AUTO 35004KT 10SM CLR 15/00 A3017 RMK AO2 T01460001
KCJR 162235Z AUTO 35006KT 10SM CLR 16/00 A3017 RMK AO2 T01550000
KCJR 162215Z AUTO 34006KT 10SM CLR 16/00 A3016 RMK AO2 T01630000
KCJR 162155Z AUTO 35012G16KT 10SM CLR 17/00 A3015 RMK AO2 T01691002
KCJR 162135Z AUTO 35009KT 10SM CLR 18/00 A3014 RMK AO2 T01750001
KCJR 162115Z AUTO 33007KT 10SM CLR 18/01 A3014 RMK AO2 T01800012
KCJR 162055Z AUTO 34007G16KT 10SM CLR 18/01 A3014 RMK AO2 T01810011
KCJR 162040Z AUTO 34010G15KT 10SM CLR 18/01 A3014 RMK AO2 T01830009
KCJR 162015Z AUTO 36012G17KT 10SM SCT060 19/01 A3014 RMK AO2 T01860014
KCJR 161955Z AUTO 34009G16KT 10SM BKN060 19/02 A3013 RMK AO2 T01880023
KCJR 161935Z AUTO 32011G18KT 10SM SCT060 18/02 A3013 RMK AO2 T01810020
KCJR 161915Z AUTO 32011G19KT 10SM SCT060 18/03 A3013 RMK AO2 T01840025
KCJR 161855Z AUTO 33013G20KT 10SM SCT060 18/03 A3013 RMK AO2 T01820025
KCJR 161835Z AUTO 35013G20KT 10SM SCT050 18/03 A3012 RMK AO2 T01820032
KCJR 161815Z AUTO 34013G20KT 10SM CLR 18/03 A3012 RMK AO2 T01780033
KCJR 161755Z AUTO 35012G18KT 10SM CLR 17/04 A3014 RMK AO2 T01660036 10182 20153
KCJR 161735Z AUTO 33011G18KT 10SM SCT050 18/03 A3013 RMK AO2 T01780034
KCJR 161715Z AUTO 36018G25KT 10SM SCT050 18/05 A3012 RMK AO2 T01800046
KCJR 161655Z AUTO 35012G18KT 10SM CLR 18/05 A3013 RMK AO2 T01770049
KCJR 161635Z AUTO 32011G20KT 280V340 10SM CLR 17/05 A3013 RMK AO2 T01720047
KCJR 161615Z AUTO 34012G19KT 10SM CLR 17/05 A3014 RMK AO2 T01680049
KCJR 161555Z AUTO 32011G19KT 10SM CLR 17/05 A3013 RMK AO2 T01650050
KCJR 161535Z AUTO 33009G18KT 10SM BKN050 17/06 A3012 RMK AO2 T01690059
KCJR 161515Z AUTO 34010G17KT 10SM OVC050 16/06 A3012 RMK AO2 T01620064
KCJR 161455Z AUTO 01016G21KT 10SM BKN050 16/07 A3011 RMK AO2 T01630070
KCJR 161435Z AUTO 34011G16KT 10SM CLR 16/08 A3012 RMK AO2 T01620077
KCJR 161415Z AUTO 36009G14KT 10SM CLR 16/08 A3011 RMK AO2 T01610078
KCJR 161355Z AUTO 35010G17KT 10SM CLR 17/07 A3009 RMK AO2 T01670074
KCJR 161335Z AUTO 34008KT 10SM CLR 17/07 A3007 RMK AO2 T01650073
KCJR 161315Z AUTO 33011G16KT 10SM CLR 16/08 A3008 RMK AO2 T01620081
KCJR 161255Z AUTO 35007KT 10SM CLR 16/09 A3009 RMK AO2 T01580086
KCJR 161235Z AUTO 35005KT 10SM CLR 16/09 A3008 RMK AO2 T01560087
KCJR 161215Z AUTO 36005KT 10SM CLR 15/10 A3007 RMK AO2 T01540095
KCJR 161155Z AUTO 34005KT 10SM CLR 16/10 A3006 RMK AO2 60006 70007 T01550100 10200 20147
KCJR 161135Z AUTO 36004KT 10SM SCT110 15/11 A3002 RMK AO2 T01500112
KCJR 161115Z AUTO 01005KT 10SM SCT120 15/12 A3001 RMK AO2 T01480117
KCJR 161055Z AUTO 36003KT 10SM SCT120 15/12 A3001 RMK AO2 P0001 T01500117
KCJR 161035Z AUTO 00000KT 10SM -RA SCT120 15/12 A3001 RMK AO2 P0001 T01500120
KCJR 161015Z AUTO 35003KT 10SM -RA BKN110 16/12 A3001 RMK AO2 T01560118
KCJR 160955Z AUTO 33004KT 10SM -RA OVC110 16/12 A3002 RMK AO2 T01600122
KCJR 160935Z AUTO 36004KT 10SM -RA OVC110 16/13 A2999 RMK AO2 T01610131
KCJR 160915Z AUTO 36005KT 10SM SCT060 OVC100 16/14 A2999 RMK AO2 T01610140
KCJR 160855Z AUTO 00000KT 10SM -RA BKN060 OVC090 16/14 A2999 RMK AO2 P0001 60005 T01620143
KCJR 160835Z AUTO 02003KT 10SM -RA SCT060 SCT070 OVC080 17/14 A2999 RMK AO2 P0001 T01650143
KCJR 160815Z AUTO 35005KT 10SM RA SCT035 BKN050 OVC070 17/15 A2999 RMK AO2 T01670150
KCJR 160755Z AUTO 01003KT 10SM RA BKN048 BKN065 OVC075 17/15 A2998 RMK AO2 P0003 T01700150
KCJR 160735Z AUTO 01006KT 10SM DZ SCT013 BKN065 OVC075 17/15 A2997 RMK AO2 P0002 T01720154
KCJR 160715Z AUTO 36007KT 7SM RA SCT010 BKN017 OVC049 18/16 A2997 RMK AO2 P0002 T01810162
KCJR 160655Z AUTO 36007KT 10SM +DZ OVC049 19/16 A2997 RMK AO2 P0001 T01910164
KCJR 160635Z AUTO 35005KT 10SM OVC045 20/17 A2996 RMK AO2 P0001 T01950167
KCJR 160615Z AUTO 35003KT 10SM RA BKN043 BKN050 OVC070 20/17 A2995 RMK AO2 P0001 T02000165
KCJR 160555Z AUTO 00000KT 10SM -DZ BKN043 BKN055 OVC065 20/17 A2995 RMK AO2 P0001 60001 T01980173 10229 20198
KCJR 160535Z AUTO 34007KT 10SM -RA BKN043 OVC050 20/18 A2995 RMK AO2 P0001 T02000176
KCJR 160515Z AUTO 35006KT 7SM RA SCT039 OVC050 21/18 A2994 RMK AO2 P0001 T02060180
KCJR 160455Z AUTO 34005KT 7SM -RA SCT019 BKN038 OVC060 22/18 A2993 RMK AO2 T02170184 402770168
KCJR 160435Z AUTO 34003KT 10SM -RA SCT021 OVC070 23/19 A2993 RMK AO2 T02250188
KCJR 160415Z AUTO 00000KT 10SM BKN070 OVC080 23/19 A2991 RMK AO2 T02250185
KCJR 160355Z AUTO 24007KT 10SM SCT070 OVC080 23/19 A2990 RMK AO2 T02260185
KCJR 160335Z AUTO 20006KT 10SM BKN080 OVC110 23/18 A2989 RMK AO2 T02270183
KCJR 160315Z AUTO 21006KT 10SM BKN080 OVC110 23/19 A2988 RMK AO2 T02280185
KCJR 160255Z AUTO 21006KT 10SM BKN080 BKN090 OVC110 23/19 A2989 RMK AO2 T02250185
KCJR 160235Z AUTO 20005KT 10SM SCT080 OVC110 23/19 A2988 RMK AO2 T02250185
KCJR 160215Z AUTO 21005KT 10SM OVC100 23/19 A2989 RMK AO2 T02270185
KCJR 160155Z AUTO 21006KT 10SM OVC100 23/19 A2990 RMK AO2 T02250185
KCJR 160135Z AUTO 20006KT 10SM SCT100 23/19 A2989 RMK AO2 T02270185
KCJR 160115Z AUTO 21005KT 10SM CLR 23/19 A2990 RMK AO2 T02250185
KCJR 160055Z AUTO 20006KT 10SM CLR 23/19 A2990 RMK AO2 T02280185
KCJR 160035Z AUTO 20006KT 10SM CLR 22/18 A2990 RMK AO2 T02200183
KCJR 160015Z AUTO 20004KT 10SM CLR 23/18 A2990 RMK AO2 T02270181
KCJR 152355Z AUTO 19003KT 10SM CLR 23/18 A2989 RMK AO2 T02300180 10277 20229
KCJR 152335Z AUTO 19003KT 10SM CLR 23/18 A2990 RMK AO2 T02310177
KCJR 152315Z AUTO 16003KT 10SM CLR 23/18 A2990 RMK AO2 T02330176
KCJR 152255Z AUTO 17003KT 10SM CLR 24/18 A2990 RMK AO2 T02390175
KCJR 152235Z AUTO 18003KT 10SM CLR 25/18 A2990 RMK AO2 T02470175
KCJR 152215Z AUTO 19004KT 10SM CLR 26/18 A2991 RMK AO2 T02550175
KCJR 152155Z AUTO 20005KT 10SM CLR 26/17 A2991 RMK AO2 T02600171
KCJR 152135Z AUTO 21009KT 10SM CLR 27/17 A2991 RMK AO2 T02650173
KCJR 152115Z AUTO 19006KT 10SM CLR 27/17 A2991 RMK AO2 T02700172
KCJR 152055Z AUTO 20009KT 10SM CLR 27/17 A2991 RMK AO2 T02740171
KCJR 152035Z AUTO 22010KT 10SM CLR 27/17 A2992 RMK AO2 T02740171
KCJR 152015Z AUTO 22009G15KT 10SM CLR 27/17 A2993 RMK AO2 T02710167
KCJR 151955Z AUTO 21006KT 10SM CLR 28/17 A2993 RMK AO2 T02750171